sensor_id;sensor_type;location;lat;lon;timestamp;P1;durP1;ratioP1;P2;durP2;ratioP2
20621;SDS011;10470;42.670;23.354;2023-05-15T00:00:50;9.00;;;7.67;;
20621;SDS011;10470;42.670;23.354;2023-05-15T00:03:35;10.07;;;7.30;;
20621;SDS011;10470;42.670;23.354;2023-05-15T00:06:21;11.70;;;7.53;;
20621;SDS011;10470;42.670;23.354;2023-05-15T00:09:06;9.17;;;7.40;;
20621;SDS011;10470;42.670;23.354;2023-05-15T00:11:51;10.17;;;7.87;;
20621;SDS011;10470;42.670;23.354;2023-05-15T00:14:37;11.70;;;8.27;;
20621;SDS011;10470;42.670;23.354;2023-05-15T00:17:22;11.90;;;8.23;;
20621;SDS011;10470;42.670;23.354;2023-05-15T00:19:59;10.90;;;8.17;;
20621;SDS011;10470;42.670;23.354;2023-05-15T00:22:45;11.60;;;8.00;;
20621;SDS011;10470;42.670;23.354;2023-05-15T00:25:30;10.83;;;7.23;;
20621;SDS011;10470;42.670;23.354;2023-05-15T00:28:16;11.87;;;8.10;;
20621;SDS011;10470;42.670;23.354;2023-05-15T00:31:01;14.47;;;8.20;;
20621;SDS011;10470;42.670;23.354;2023-05-15T00:33:46;9.43;;;7.27;;
20621;SDS011;10470;42.670;23.354;2023-05-15T00:36:32;10.00;;;7.47;;
20621;SDS011;10470;42.670;23.354;2023-05-15T00:39:17;7.57;;;6.77;;
20621;SDS011;10470;42.670;23.354;2023-05-15T00:42:03;11.13;;;7.10;;
20621;SDS011;10470;42.670;23.354;2023-05-15T00:44:51;8.97;;;7.13;;
20621;SDS011;10470;42.670;23.354;2023-05-15T00:47:37;8.77;;;6.90;;
20621;SDS011;10470;42.670;23.354;2023-05-15T00:50:24;7.80;;;7.00;;
20621;SDS011;10470;42.670;23.354;2023-05-15T00:53:10;9.53;;;6.93;;
20621;SDS011;10470;42.670;23.354;2023-05-15T00:55:57;7.93;;;6.83;;
20621;SDS011;10470;42.670;23.354;2023-05-15T00:58:44;8.27;;;7.37;;
20621;SDS011;10470;42.670;23.354;2023-05-15T01:01:31;11.23;;;7.50;;
20621;SDS011;10470;42.670;23.354;2023-05-15T01:04:18;8.43;;;7.10;;
20621;SDS011;10470;42.670;23.354;2023-05-15T01:07:04;9.13;;;6.83;;
20621;SDS011;10470;42.670;23.354;2023-05-15T01:09:49;7.97;;;7.17;;
20621;SDS011;10470;42.670;23.354;2023-05-15T01:12:37;8.20;;;7.00;;
20621;SDS011;10470;42.670;23.354;2023-05-15T01:15:25;10.03;;;7.57;;
20621;SDS011;10470;42.670;23.354;2023-05-15T01:18:10;7.47;;;6.67;;
20621;SDS011;10470;42.670;23.354;2023-05-15T01:33:10;12.83;;;8.70;;
20621;SDS011;10470;42.670;23.354;2023-05-15T01:36:11;9.20;;;7.63;;
20621;SDS011;10470;42.670;23.354;2023-05-15T01:39:03;8.80;;;7.50;;
20621;SDS011;10470;42.670;23.354;2023-05-15T01:41:54;9.53;;;7.80;;
20621;SDS011;10470;42.670;23.354;2023-05-15T01:44:50;8.13;;;7.30;;
20621;SDS011;10470;42.670;23.354;2023-05-15T01:47:40;8.37;;;7.20;;
20621;SDS011;10470;42.670;23.354;2023-05-15T01:50:31;8.67;;;7.77;;
20621;SDS011;10470;42.670;23.354;2023-05-15T01:53:18;10.27;;;7.40;;
20621;SDS011;10470;42.670;23.354;2023-05-15T01:56:05;9.80;;;7.77;;
20621;SDS011;10470;42.670;23.354;2023-05-15T01:58:53;9.47;;;7.13;;
20621;SDS011;10470;42.670;23.354;2023-05-15T02:01:41;9.70;;;7.43;;
20621;SDS011;10470;42.670;23.354;2023-05-15T02:04:27;8.10;;;7.30;;
20621;SDS011;10470;42.670;23.354;2023-05-15T02:07:14;8.20;;;7.03;;
20621;SDS011;10470;42.670;23.354;2023-05-15T02:10:01;9.03;;;7.43;;
20621;SDS011;10470;42.670;23.354;2023-05-15T02:12:47;8.40;;;7.57;;
20621;SDS011;10470;42.670;23.354;2023-05-15T02:15:34;8.60;;;7.03;;
20621;SDS011;10470;42.670;23.354;2023-05-15T02:18:21;8.73;;;7.50;;
20621;SDS011;10470;42.670;23.354;2023-05-15T02:21:07;8.73;;;7.53;;
20621;SDS011;10470;42.670;23.354;2023-05-15T02:23:50;13.03;;;7.83;;
20621;SDS011;10470;42.670;23.354;2023-05-15T02:29:35;7.93;;;7.13;;
20621;SDS011;10470;42.670;23.354;2023-05-15T02:36:06;11.53;;;8.00;;
20621;SDS011;10470;42.670;23.354;2023-05-15T02:38:53;9.03;;;8.03;;
20621;SDS011;10470;42.670;23.354;2023-05-15T02:41:40;12.37;;;7.87;;
20621;SDS011;10470;42.670;23.354;2023-05-15T02:44:24;10.67;;;7.83;;
20621;SDS011;10470;42.670;23.354;2023-05-15T02:47:11;9.30;;;7.60;;
20621;SDS011;10470;42.670;23.354;2023-05-15T02:49:56;10.70;;;8.60;;
20621;SDS011;10470;42.670;23.354;2023-05-15T02:52:42;10.77;;;9.07;;
20621;SDS011;10470;42.670;23.354;2023-05-15T02:55:27;13.10;;;8.83;;
20621;SDS011;10470;42.670;23.354;2023-05-15T02:58:13;13.90;;;9.53;;
20621;SDS011;10470;42.670;23.354;2023-05-15T03:00:59;11.27;;;9.77;;
20621;SDS011;10470;42.670;23.354;2023-05-15T03:03:31;13.60;;;10.03;;
20621;SDS011;10470;42.670;23.354;2023-05-15T03:06:17;10.97;;;9.73;;
20621;SDS011;10470;42.670;23.354;2023-05-15T03:09:02;13.20;;;9.83;;
20621;SDS011;10470;42.670;23.354;2023-05-15T03:11:48;12.07;;;10.20;;
20621;SDS011;10470;42.670;23.354;2023-05-15T03:14:33;13.03;;;11.00;;
20621;SDS011;10470;42.670;23.354;2023-05-15T03:17:18;12.77;;;11.00;;
20621;SDS011;10470;42.670;23.354;2023-05-15T03:20:04;15.37;;;12.40;;
20621;SDS011;10470;42.670;23.354;2023-05-15T03:22:50;14.43;;;12.00;;
20621;SDS011;10470;42.670;23.354;2023-05-15T03:25:35;15.40;;;11.57;;
20621;SDS011;10470;42.670;23.354;2023-05-15T03:28:21;11.93;;;10.63;;
20621;SDS011;10470;42.670;23.354;2023-05-15T03:31:06;12.67;;;10.53;;
20621;SDS011;10470;42.670;23.354;2023-05-15T03:33:37;12.43;;;10.07;;
20621;SDS011;10470;42.670;23.354;2023-05-15T03:36:22;10.33;;;9.23;;
20621;SDS011;10470;42.670;23.354;2023-05-15T03:39:08;12.90;;;10.20;;
20621;SDS011;10470;42.670;23.354;2023-05-15T03:41:53;13.07;;;9.77;;
20621;SDS011;10470;42.670;23.354;2023-05-15T03:44:39;12.73;;;10.70;;
20621;SDS011;10470;42.670;23.354;2023-05-15T03:47:24;13.23;;;10.77;;
20621;SDS011;10470;42.670;23.354;2023-05-15T03:50:10;15.30;;;12.13;;
20621;SDS011;10470;42.670;23.354;2023-05-15T03:52:55;16.77;;;12.57;;
20621;SDS011;10470;42.670;23.354;2023-05-15T03:55:41;16.77;;;12.53;;
20621;SDS011;10470;42.670;23.354;2023-05-15T03:58:26;17.50;;;12.57;;
20621;SDS011;10470;42.670;23.354;2023-05-15T04:01:12;15.50;;;11.97;;
20621;SDS011;10470;42.670;23.354;2023-05-15T04:03:57;16.43;;;13.07;;
20621;SDS011;10470;42.670;23.354;2023-05-15T04:06:42;16.40;;;13.70;;
20621;SDS011;10470;42.670;23.354;2023-05-15T04:09:28;15.03;;;12.60;;
20621;SDS011;10470;42.670;23.354;2023-05-15T04:12:13;17.40;;;12.83;;
20621;SDS011;10470;42.670;23.354;2023-05-15T04:18:07;17.33;;;13.30;;
20621;SDS011;10470;42.670;23.354;2023-05-15T04:20:52;19.87;;;14.30;;
20621;SDS011;10470;42.670;23.354;2023-05-15T04:23:34;18.53;;;14.40;;
20621;SDS011;10470;42.670;23.354;2023-05-15T04:26:19;19.43;;;14.77;;
20621;SDS011;10470;42.670;23.354;2023-05-15T04:29:05;20.10;;;13.93;;
20621;SDS011;10470;42.670;23.354;2023-05-15T04:31:50;20.70;;;13.83;;
20621;SDS011;10470;42.670;23.354;2023-05-15T04:34:36;22.93;;;13.83;;
20621;SDS011;10470;42.670;23.354;2023-05-15T04:37:21;15.83;;;13.27;;
20621;SDS011;10470;42.670;23.354;2023-05-15T04:40:07;15.67;;;12.47;;
20621;SDS011;10470;42.670;23.354;2023-05-15T04:42:53;15.43;;;12.70;;
20621;SDS011;10470;42.670;23.354;2023-05-15T04:45:39;15.00;;;11.83;;
20621;SDS011;10470;42.670;23.354;2023-05-15T04:48:24;17.53;;;13.03;;
20621;SDS011;10470;42.670;23.354;2023-05-15T04:51:05;19.57;;;13.90;;
20621;SDS011;10470;42.670;23.354;2023-05-15T04:53:41;16.30;;;13.40;;
20621;SDS011;10470;42.670;23.354;2023-05-15T04:56:26;17.07;;;14.03;;
20621;SDS011;10470;42.670;23.354;2023-05-15T04:59:12;16.63;;;13.17;;
20621;SDS011;10470;42.670;23.354;2023-05-15T05:01:50;15.80;;;12.93;;
20621;SDS011;10470;42.670;23.354;2023-05-15T05:04:36;17.60;;;13.60;;
20621;SDS011;10470;42.670;23.354;2023-05-15T05:07:21;22.00;;;16.10;;
20621;SDS011;10470;42.670;23.354;2023-05-15T05:10:07;22.23;;;16.57;;
20621;SDS011;10470;42.670;23.354;2023-05-15T05:12:47;22.93;;;17.87;;
20621;SDS011;10470;42.670;23.354;2023-05-15T05:15:33;24.70;;;18.87;;
20621;SDS011;10470;42.670;23.354;2023-05-15T05:18:18;25.27;;;17.83;;
20621;SDS011;10470;42.670;23.354;2023-05-15T05:21:04;22.73;;;16.70;;
20621;SDS011;10470;42.670;23.354;2023-05-15T05:23:49;22.83;;;16.50;;
20621;SDS011;10470;42.670;23.354;2023-05-15T05:26:35;20.87;;;16.17;;
20621;SDS011;10470;42.670;23.354;2023-05-15T05:29:20;22.47;;;16.53;;
20621;SDS011;10470;42.670;23.354;2023-05-15T05:32:05;23.67;;;16.97;;
20621;SDS011;10470;42.670;23.354;2023-05-15T05:34:51;24.07;;;18.10;;
20621;SDS011;10470;42.670;23.354;2023-05-15T05:37:37;24.77;;;17.43;;
20621;SDS011;10470;42.670;23.354;2023-05-15T05:40:22;24.07;;;17.70;;
20621;SDS011;10470;42.670;23.354;2023-05-15T05:43:07;28.17;;;18.20;;
20621;SDS011;10470;42.670;23.354;2023-05-15T05:45:53;22.67;;;17.30;;
20621;SDS011;10470;42.670;23.354;2023-05-15T05:48:38;22.73;;;16.60;;
20621;SDS011;10470;42.670;23.354;2023-05-15T05:51:24;21.00;;;15.60;;
20621;SDS011;10470;42.670;23.354;2023-05-15T05:54:09;20.77;;;14.60;;
20621;SDS011;10470;42.670;23.354;2023-05-15T05:56:55;18.83;;;13.63;;
20621;SDS011;10470;42.670;23.354;2023-05-15T05:59:40;20.30;;;13.83;;
20621;SDS011;10470;42.670;23.354;2023-05-15T06:02:26;17.90;;;13.63;;
20621;SDS011;10470;42.670;23.354;2023-05-15T06:04:59;19.27;;;13.30;;
20621;SDS011;10470;42.670;23.354;2023-05-15T06:07:45;15.67;;;12.33;;
20621;SDS011;10470;42.670;23.354;2023-05-15T06:10:31;20.63;;;13.60;;
20621;SDS011;10470;42.670;23.354;2023-05-15T06:13:17;22.03;;;14.07;;
20621;SDS011;10470;42.670;23.354;2023-05-15T06:16:03;18.77;;;13.47;;
20621;SDS011;10470;42.670;23.354;2023-05-15T06:18:48;20.73;;;14.53;;
20621;SDS011;10470;42.670;23.354;2023-05-15T06:21:34;23.30;;;15.63;;
20621;SDS011;10470;42.670;23.354;2023-05-15T06:24:19;23.43;;;14.67;;
20621;SDS011;10470;42.670;23.354;2023-05-15T06:27:05;23.70;;;15.70;;
20621;SDS011;10470;42.670;23.354;2023-05-15T06:29:50;25.93;;;15.57;;
20621;SDS011;10470;42.670;23.354;2023-05-15T06:32:36;20.23;;;15.10;;
20621;SDS011;10470;42.670;23.354;2023-05-15T06:35:22;24.23;;;15.77;;
20621;SDS011;10470;42.670;23.354;2023-05-15T06:38:10;22.17;;;14.83;;
20621;SDS011;10470;42.670;23.354;2023-05-15T06:40:55;24.07;;;15.47;;
20621;SDS011;10470;42.670;23.354;2023-05-15T06:43:41;21.13;;;14.60;;
20621;SDS011;10470;42.670;23.354;2023-05-15T06:46:26;33.40;;;15.63;;
20621;SDS011;10470;42.670;23.354;2023-05-15T06:49:12;21.93;;;14.10;;
20621;SDS011;10470;42.670;23.354;2023-05-15T06:51:57;22.20;;;14.10;;
20621;SDS011;10470;42.670;23.354;2023-05-15T06:54:42;22.03;;;14.60;;
20621;SDS011;10470;42.670;23.354;2023-05-15T06:57:28;24.33;;;15.50;;
20621;SDS011;10470;42.670;23.354;2023-05-15T07:00:13;19.03;;;13.47;;
20621;SDS011;10470;42.670;23.354;2023-05-15T07:03:00;18.20;;;13.23;;
20621;SDS011;10470;42.670;23.354;2023-05-15T07:05:45;18.93;;;12.10;;
20621;SDS011;10470;42.670;23.354;2023-05-15T07:08:30;17.10;;;12.50;;
20621;SDS011;10470;42.670;23.354;2023-05-15T07:11:16;16.73;;;12.40;;
20621;SDS011;10470;42.670;23.354;2023-05-15T07:14:02;21.23;;;15.27;;
20621;SDS011;10470;42.670;23.354;2023-05-15T07:16:48;17.90;;;12.77;;
20621;SDS011;10470;42.670;23.354;2023-05-15T07:19:33;20.47;;;12.23;;
20621;SDS011;10470;42.670;23.354;2023-05-15T07:22:08;22.17;;;13.07;;
20621;SDS011;10470;42.670;23.354;2023-05-15T07:24:53;19.30;;;13.73;;
20621;SDS011;10470;42.670;23.354;2023-05-15T07:27:38;20.67;;;13.43;;
20621;SDS011;10470;42.670;23.354;2023-05-15T07:30:24;17.53;;;12.63;;
20621;SDS011;10470;42.670;23.354;2023-05-15T07:33:10;18.10;;;13.23;;
20621;SDS011;10470;42.670;23.354;2023-05-15T07:35:55;21.13;;;13.27;;
20621;SDS011;10470;42.670;23.354;2023-05-15T07:38:40;20.43;;;14.03;;
20621;SDS011;10470;42.670;23.354;2023-05-15T07:41:26;19.73;;;13.67;;
20621;SDS011;10470;42.670;23.354;2023-05-15T07:44:11;20.63;;;13.63;;
20621;SDS011;10470;42.670;23.354;2023-05-15T07:46:57;21.23;;;14.03;;
20621;SDS011;10470;42.670;23.354;2023-05-15T07:49:43;19.17;;;14.03;;
20621;SDS011;10470;42.670;23.354;2023-05-15T07:52:28;20.33;;;13.80;;
20621;SDS011;10470;42.670;23.354;2023-05-15T07:55:14;24.67;;;14.50;;
20621;SDS011;10470;42.670;23.354;2023-05-15T07:57:59;21.23;;;14.37;;
20621;SDS011;10470;42.670;23.354;2023-05-15T08:00:44;20.73;;;15.50;;
20621;SDS011;10470;42.670;23.354;2023-05-15T08:03:30;20.40;;;15.47;;
20621;SDS011;10470;42.670;23.354;2023-05-15T08:06:01;22.40;;;14.80;;
20621;SDS011;10470;42.670;23.354;2023-05-15T08:08:46;21.87;;;15.40;;
20621;SDS011;10470;42.670;23.354;2023-05-15T08:11:31;20.43;;;14.70;;
20621;SDS011;10470;42.670;23.354;2023-05-15T08:14:17;21.43;;;15.30;;
20621;SDS011;10470;42.670;23.354;2023-05-15T08:17:02;29.63;;;15.23;;
20621;SDS011;10470;42.670;23.354;2023-05-15T08:19:48;24.33;;;16.80;;
20621;SDS011;10470;42.670;23.354;2023-05-15T08:22:28;23.20;;;15.93;;
20621;SDS011;10470;42.670;23.354;2023-05-15T08:25:14;22.40;;;16.50;;
20621;SDS011;10470;42.670;23.354;2023-05-15T08:28:00;21.43;;;15.97;;
20621;SDS011;10470;42.670;23.354;2023-05-15T08:30:46;22.27;;;15.60;;
20621;SDS011;10470;42.670;23.354;2023-05-15T08:33:31;24.33;;;16.33;;
20621;SDS011;10470;42.670;23.354;2023-05-15T08:36:17;20.67;;;15.47;;
20621;SDS011;10470;42.670;23.354;2023-05-15T08:39:03;21.17;;;15.00;;
20621;SDS011;10470;42.670;23.354;2023-05-15T08:41:55;23.43;;;15.07;;
20621;SDS011;10470;42.670;23.354;2023-05-15T08:44:44;22.40;;;14.53;;
20621;SDS011;10470;42.670;23.354;2023-05-15T08:47:30;18.57;;;14.17;;
20621;SDS011;10470;42.670;23.354;2023-05-15T08:50:19;18.00;;;13.77;;
20621;SDS011;10470;42.670;23.354;2023-05-15T08:53:06;19.87;;;13.43;;
20621;SDS011;10470;42.670;23.354;2023-05-15T08:55:52;16.83;;;13.13;;
20621;SDS011;10470;42.670;23.354;2023-05-15T08:58:38;17.90;;;12.50;;
20621;SDS011;10470;42.670;23.354;2023-05-15T09:01:23;18.83;;;11.93;;
20621;SDS011;10470;42.670;23.354;2023-05-15T09:04:09;18.13;;;12.63;;
20621;SDS011;10470;42.670;23.354;2023-05-15T09:06:55;16.97;;;12.57;;
20621;SDS011;10470;42.670;23.354;2023-05-15T09:09:44;16.50;;;12.10;;
20621;SDS011;10470;42.670;23.354;2023-05-15T09:12:32;20.43;;;13.90;;
20621;SDS011;10470;42.670;23.354;2023-05-15T09:15:21;18.47;;;14.37;;
20621;SDS011;10470;42.670;23.354;2023-05-15T09:18:09;20.80;;;14.97;;
20621;SDS011;10470;42.670;23.354;2023-05-15T09:20:55;21.17;;;15.47;;
20621;SDS011;10470;42.670;23.354;2023-05-15T09:24:19;20.93;;;15.27;;
20621;SDS011;10470;42.670;23.354;2023-05-15T09:27:09;24.17;;;15.73;;
20621;SDS011;10470;42.670;23.354;2023-05-15T09:29:55;22.43;;;16.03;;
20621;SDS011;10470;42.670;23.354;2023-05-15T09:32:48;22.50;;;15.07;;
20621;SDS011;10470;42.670;23.354;2023-05-15T09:35:35;20.63;;;15.37;;
20621;SDS011;10470;42.670;23.354;2023-05-15T09:38:21;22.23;;;15.80;;
20621;SDS011;10470;42.670;23.354;2023-05-15T09:41:07;22.17;;;16.27;;
20621;SDS011;10470;42.670;23.354;2023-05-15T09:43:54;23.83;;;15.87;;
20621;SDS011;10470;42.670;23.354;2023-05-15T09:46:40;24.33;;;15.73;;
20621;SDS011;10470;42.670;23.354;2023-05-15T09:49:27;22.17;;;14.50;;
20621;SDS011;10470;42.670;23.354;2023-05-15T09:52:14;20.37;;;14.50;;
20621;SDS011;10470;42.670;23.354;2023-05-15T09:55:00;17.33;;;13.40;;
20621;SDS011;10470;42.670;23.354;2023-05-15T09:58:02;18.07;;;13.87;;
20621;SDS011;10470;42.670;23.354;2023-05-15T10:00:35;20.93;;;13.00;;
20621;SDS011;10470;42.670;23.354;2023-05-15T10:03:21;20.27;;;13.27;;
20621;SDS011;10470;42.670;23.354;2023-05-15T10:06:07;19.03;;;13.43;;
20621;SDS011;10470;42.670;23.354;2023-05-15T10:08:53;19.07;;;12.37;;
20621;SDS011;10470;42.670;23.354;2023-05-15T10:11:39;16.03;;;12.50;;
20621;SDS011;10470;42.670;23.354;2023-05-15T10:14:16;18.53;;;12.40;;
20621;SDS011;10470;42.670;23.354;2023-05-15T10:17:03;15.87;;;12.17;;
20621;SDS011;10470;42.670;23.354;2023-05-15T10:19:49;23.07;;;13.10;;
20621;SDS011;10470;42.670;23.354;2023-05-15T10:22:39;19.50;;;13.00;;
20621;SDS011;10470;42.670;23.354;2023-05-15T10:25:29;19.73;;;13.40;;
20621;SDS011;10470;42.670;23.354;2023-05-15T10:28:22;16.17;;;12.43;;
20621;SDS011;10470;42.670;23.354;2023-05-15T10:31:09;17.20;;;12.50;;
20621;SDS011;10470;42.670;23.354;2023-05-15T10:33:55;15.67;;;12.40;;
20621;SDS011;10470;42.670;23.354;2023-05-15T10:36:41;14.80;;;11.23;;
20621;SDS011;10470;42.670;23.354;2023-05-15T10:39:26;16.17;;;11.80;;
20621;SDS011;10470;42.670;23.354;2023-05-15T10:42:05;15.90;;;11.33;;
20621;SDS011;10470;42.670;23.354;2023-05-15T10:44:52;15.33;;;11.67;;
20621;SDS011;10470;42.670;23.354;2023-05-15T10:47:43;20.73;;;12.57;;
20621;SDS011;10470;42.670;23.354;2023-05-15T10:50:30;18.47;;;12.23;;
20621;SDS011;10470;42.670;23.354;2023-05-15T10:53:15;18.93;;;12.63;;
20621;SDS011;10470;42.670;23.354;2023-05-15T10:56:01;16.43;;;12.83;;
20621;SDS011;10470;42.670;23.354;2023-05-15T10:58:47;19.03;;;12.33;;
20621;SDS011;10470;42.670;23.354;2023-05-15T11:01:37;16.60;;;11.57;;
20621;SDS011;10470;42.670;23.354;2023-05-15T11:04:23;16.50;;;11.90;;
20621;SDS011;10470;42.670;23.354;2023-05-15T11:07:11;16.30;;;12.20;;
20621;SDS011;10470;42.670;23.354;2023-05-15T11:10:34;21.43;;;11.70;;
20621;SDS011;10470;42.670;23.354;2023-05-15T11:13:13;17.27;;;12.13;;
20621;SDS011;10470;42.670;23.354;2023-05-15T11:15:59;18.03;;;13.53;;
20621;SDS011;10470;42.670;23.354;2023-05-15T11:18:44;17.97;;;13.07;;
20621;SDS011;10470;42.670;23.354;2023-05-15T11:21:30;18.90;;;13.10;;
20621;SDS011;10470;42.670;23.354;2023-05-15T11:24:16;23.57;;;15.00;;
20621;SDS011;10470;42.670;23.354;2023-05-15T11:27:02;21.70;;;14.10;;
20621;SDS011;10470;42.670;23.354;2023-05-15T11:30:07;20.90;;;13.77;;
20621;SDS011;10470;42.670;23.354;2023-05-15T11:33:01;21.90;;;14.17;;
20621;SDS011;10470;42.670;23.354;2023-05-15T11:35:46;22.03;;;13.40;;
20621;SDS011;10470;42.670;23.354;2023-05-15T11:38:27;23.70;;;15.93;;
20621;SDS011;10470;42.670;23.354;2023-05-15T11:41:16;22.83;;;15.17;;
20621;SDS011;10470;42.670;23.354;2023-05-15T11:44:03;19.20;;;14.07;;
20621;SDS011;10470;42.670;23.354;2023-05-15T11:46:49;18.67;;;13.03;;
20621;SDS011;10470;42.670;23.354;2023-05-15T11:49:36;18.27;;;12.60;;
20621;SDS011;10470;42.670;23.354;2023-05-15T11:52:22;20.30;;;12.40;;
20621;SDS011;10470;42.670;23.354;2023-05-15T11:55:08;16.50;;;12.27;;
20621;SDS011;10470;42.670;23.354;2023-05-15T11:57:54;15.97;;;12.37;;
20621;SDS011;10470;42.670;23.354;2023-05-15T12:00:40;20.67;;;12.37;;
20621;SDS011;10470;42.670;23.354;2023-05-15T12:03:33;16.90;;;11.93;;
20621;SDS011;10470;42.670;23.354;2023-05-15T12:06:20;18.67;;;12.50;;
20621;SDS011;10470;42.670;23.354;2023-05-15T12:09:05;17.80;;;11.90;;
20621;SDS011;10470;42.670;23.354;2023-05-15T12:12:01;19.43;;;12.20;;
20621;SDS011;10470;42.670;23.354;2023-05-15T12:14:47;17.20;;;11.90;;
20621;SDS011;10470;42.670;23.354;2023-05-15T12:17:32;24.57;;;13.40;;
20621;SDS011;10470;42.670;23.354;2023-05-15T12:20:17;16.50;;;12.50;;
20621;SDS011;10470;42.670;23.354;2023-05-15T12:23:03;17.67;;;12.03;;
20621;SDS011;10470;42.670;23.354;2023-05-15T12:25:50;18.17;;;12.53;;
20621;SDS011;10470;42.670;23.354;2023-05-15T12:28:41;20.90;;;13.17;;
20621;SDS011;10470;42.670;23.354;2023-05-15T12:31:27;18.50;;;12.03;;
20621;SDS011;10470;42.670;23.354;2023-05-15T12:34:11;17.33;;;12.67;;
20621;SDS011;10470;42.670;23.354;2023-05-15T12:36:57;17.90;;;12.60;;
20621;SDS011;10470;42.670;23.354;2023-05-15T12:39:53;19.60;;;13.00;;
20621;SDS011;10470;42.670;23.354;2023-05-15T12:42:44;20.20;;;12.87;;
20621;SDS011;10470;42.670;23.354;2023-05-15T12:45:29;21.30;;;12.57;;
20621;SDS011;10470;42.670;23.354;2023-05-15T12:48:12;18.10;;;12.27;;
20621;SDS011;10470;42.670;23.354;2023-05-15T12:51:08;19.40;;;11.73;;
20621;SDS011;10470;42.670;23.354;2023-05-15T12:53:52;14.90;;;9.93;;
20621;SDS011;10470;42.670;23.354;2023-05-15T12:56:37;11.53;;;9.67;;
20621;SDS011;10470;42.670;23.354;2023-05-15T12:59:24;14.33;;;9.23;;
20621;SDS011;10470;42.670;23.354;2023-05-15T13:02:10;18.60;;;9.63;;
20621;SDS011;10470;42.670;23.354;2023-05-15T13:04:56;14.60;;;8.70;;
20621;SDS011;10470;42.670;23.354;2023-05-15T13:07:41;12.27;;;9.47;;
20621;SDS011;10470;42.670;23.354;2023-05-15T13:10:30;13.13;;;9.67;;
20621;SDS011;10470;42.670;23.354;2023-05-15T13:13:16;10.50;;;9.37;;
20621;SDS011;10470;42.670;23.354;2023-05-15T13:16:02;12.87;;;9.10;;
20621;SDS011;10470;42.670;23.354;2023-05-15T13:18:27;13.97;;;9.13;;
20621;SDS011;10470;42.670;23.354;2023-05-15T13:21:13;11.17;;;9.30;;
20621;SDS011;10470;42.670;23.354;2023-05-15T13:23:58;10.53;;;9.37;;
20621;SDS011;10470;42.670;23.354;2023-05-15T13:26:44;15.77;;;11.00;;
20621;SDS011;10470;42.670;23.354;2023-05-15T13:29:29;15.10;;;10.10;;
20621;SDS011;10470;42.670;23.354;2023-05-15T13:32:15;12.50;;;10.30;;
20621;SDS011;10470;42.670;23.354;2023-05-15T13:35:00;16.23;;;10.53;;
20621;SDS011;10470;42.670;23.354;2023-05-15T13:37:46;15.83;;;9.97;;
20621;SDS011;10470;42.670;23.354;2023-05-15T13:40:32;15.37;;;9.47;;
20621;SDS011;10470;42.670;23.354;2023-05-15T13:43:19;14.60;;;9.70;;
20621;SDS011;10470;42.670;23.354;2023-05-15T13:46:04;13.90;;;9.67;;
20621;SDS011;10470;42.670;23.354;2023-05-15T13:48:50;17.17;;;9.13;;
20621;SDS011;10470;42.670;23.354;2023-05-15T13:51:35;16.87;;;10.00;;
20621;SDS011;10470;42.670;23.354;2023-05-15T13:54:21;18.37;;;9.90;;
20621;SDS011;10470;42.670;23.354;2023-05-15T13:56:52;15.57;;;9.90;;
20621;SDS011;10470;42.670;23.354;2023-05-15T13:59:37;14.40;;;10.00;;
20621;SDS011;10470;42.670;23.354;2023-05-15T14:02:22;13.80;;;9.67;;
20621;SDS011;10470;42.670;23.354;2023-05-15T14:05:12;13.80;;;9.47;;
20621;SDS011;10470;42.670;23.354;2023-05-15T14:07:58;15.63;;;10.00;;
20621;SDS011;10470;42.670;23.354;2023-05-15T14:10:44;13.73;;;10.63;;
20621;SDS011;10470;42.670;23.354;2023-05-15T14:13:29;12.03;;;10.63;;
20621;SDS011;10470;42.670;23.354;2023-05-15T14:16:16;12.53;;;9.77;;
20621;SDS011;10470;42.670;23.354;2023-05-15T14:19:01;13.27;;;9.23;;
20621;SDS011;10470;42.670;23.354;2023-05-15T14:21:47;13.63;;;9.57;;
20621;SDS011;10470;42.670;23.354;2023-05-15T14:24:33;11.77;;;9.03;;
20621;SDS011;10470;42.670;23.354;2023-05-15T14:27:18;16.03;;;9.80;;
20621;SDS011;10470;42.670;23.354;2023-05-15T14:30:04;12.30;;;9.13;;
20621;SDS011;10470;42.670;23.354;2023-05-15T14:32:50;14.73;;;9.20;;
20621;SDS011;10470;42.670;23.354;2023-05-15T14:35:35;14.20;;;7.87;;
20621;SDS011;10470;42.670;23.354;2023-05-15T14:38:21;13.07;;;7.90;;
20621;SDS011;10470;42.670;23.354;2023-05-15T14:41:06;16.57;;;7.40;;
20621;SDS011;10470;42.670;23.354;2023-05-15T14:43:52;14.37;;;7.53;;
20621;SDS011;10470;42.670;23.354;2023-05-15T14:46:40;10.40;;;6.80;;
20621;SDS011;10470;42.670;23.354;2023-05-15T14:49:26;9.63;;;6.40;;
20621;SDS011;10470;42.670;23.354;2023-05-15T14:52:11;13.13;;;6.30;;
20621;SDS011;10470;42.670;23.354;2023-05-15T14:54:37;10.27;;;6.03;;
20621;SDS011;10470;42.670;23.354;2023-05-15T14:57:23;9.47;;;5.90;;
20621;SDS011;10470;42.670;23.354;2023-05-15T15:00:10;12.10;;;5.77;;
20621;SDS011;10470;42.670;23.354;2023-05-15T15:02:57;10.73;;;5.53;;
20621;SDS011;10470;42.670;23.354;2023-05-15T15:05:43;11.73;;;5.90;;
20621;SDS011;10470;42.670;23.354;2023-05-15T15:08:29;9.00;;;6.13;;
20621;SDS011;10470;42.670;23.354;2023-05-15T15:11:14;9.60;;;5.80;;
20621;SDS011;10470;42.670;23.354;2023-05-15T15:14:00;8.33;;;6.03;;
20621;SDS011;10470;42.670;23.354;2023-05-15T15:16:47;11.33;;;5.60;;
20621;SDS011;10470;42.670;23.354;2023-05-15T15:19:32;8.37;;;5.47;;
20621;SDS011;10470;42.670;23.354;2023-05-15T15:22:05;9.17;;;5.33;;
20621;SDS011;10470;42.670;23.354;2023-05-15T15:24:51;10.07;;;5.73;;
20621;SDS011;10470;42.670;23.354;2023-05-15T15:27:36;9.47;;;5.60;;
20621;SDS011;10470;42.670;23.354;2023-05-15T15:30:22;8.80;;;5.40;;
20621;SDS011;10470;42.670;23.354;2023-05-15T15:33:07;10.50;;;5.37;;
20621;SDS011;10470;42.670;23.354;2023-05-15T15:35:53;10.40;;;5.80;;
20621;SDS011;10470;42.670;23.354;2023-05-15T15:38:27;10.93;;;5.17;;
20621;SDS011;10470;42.670;23.354;2023-05-15T15:41:12;7.97;;;5.77;;
20621;SDS011;10470;42.670;23.354;2023-05-15T15:43:58;8.37;;;5.80;;
20621;SDS011;10470;42.670;23.354;2023-05-15T15:46:43;8.00;;;5.80;;
20621;SDS011;10470;42.670;23.354;2023-05-15T15:49:29;10.27;;;6.13;;
20621;SDS011;10470;42.670;23.354;2023-05-15T15:52:15;8.57;;;6.50;;
20621;SDS011;10470;42.670;23.354;2023-05-15T15:55:02;10.10;;;7.10;;
20621;SDS011;10470;42.670;23.354;2023-05-15T15:57:47;10.37;;;7.63;;
20621;SDS011;10470;42.670;23.354;2023-05-15T16:00:33;10.10;;;7.70;;
20621;SDS011;10470;42.670;23.354;2023-05-15T16:03:19;12.87;;;7.77;;
20621;SDS011;10470;42.670;23.354;2023-05-15T16:06:05;9.17;;;7.87;;
20621;SDS011;10470;42.670;23.354;2023-05-15T16:08:50;9.97;;;7.17;;
20621;SDS011;10470;42.670;23.354;2023-05-15T16:11:35;12.17;;;8.27;;
20621;SDS011;10470;42.670;23.354;2023-05-15T16:14:21;13.33;;;8.73;;
20621;SDS011;10470;42.670;23.354;2023-05-15T16:16:49;12.53;;;8.93;;
20621;SDS011;10470;42.670;23.354;2023-05-15T16:19:34;11.63;;;9.67;;
20621;SDS011;10470;42.670;23.354;2023-05-15T16:22:20;11.90;;;9.60;;
20621;SDS011;10470;42.670;23.354;2023-05-15T16:25:06;12.10;;;9.73;;